createdAt,value
2023-04-24T00:01:59.962Z,99.30
2023-04-24T00:04:33.743Z,98.89
2023-04-24T00:07:08.078Z,98.27
2023-04-24T00:09:41.004Z,98.44
2023-04-24T00:12:14.119Z,99.61
2023-04-24T00:14:47.001Z,100.00
2023-04-24T00:17:21.370Z,99.81
2023-04-24T00:19:59.738Z,100.00
2023-04-24T00:22:33.260Z,100.00
2023-04-24T00:25:07.362Z,100.00
2023-04-24T00:27:40.304Z,100.00
2023-04-24T00:30:14.429Z,100.00
2023-04-24T00:32:47.316Z,100.00
2023-04-24T00:35:21.349Z,100.00
2023-04-24T00:37:53.924Z,100.00
2023-04-24T00:40:27.001Z,100.00
2023-04-24T00:42:59.804Z,100.00
2023-04-24T00:45:33.614Z,100.00
2023-04-24T00:48:06.725Z,100.00
2023-04-24T00:50:40.938Z,100.00
2023-04-24T00:53:13.528Z,100.00
2023-04-24T00:55:47.881Z,100.00
2023-04-24T00:58:21.015Z,100.00
2023-04-24T01:00:55.497Z,100.00
2023-04-24T01:03:31.883Z,100.00
2023-04-24T01:06:05.597Z,100.00
2023-04-24T01:08:37.539Z,100.00
2023-04-24T01:11:10.582Z,100.00
2023-04-24T01:13:44.934Z,100.00
2023-04-24T01:16:19.063Z,100.00
2023-04-24T01:18:51.611Z,100.00
2023-04-24T01:21:24.067Z,100.00
2023-04-24T01:23:57.981Z,100.00
2023-04-24T01:26:31.363Z,100.00
2023-04-24T01:29:04.183Z,100.00
2023-04-24T01:31:40.851Z,100.00
2023-04-24T01:34:13.613Z,100.00
2023-04-24T01:36:48.432Z,100.00
2023-04-24T01:39:24.503Z,100.00
2023-04-24T01:41:57.608Z,100.00
2023-04-24T01:44:31.009Z,100.00
2023-04-24T01:47:05.563Z,100.00
2023-04-24T01:49:38.250Z,100.00
2023-04-24T01:52:11.811Z,100.00
2023-04-24T01:54:46.043Z,100.00
2023-04-24T01:57:19.212Z,100.00
2023-04-24T01:59:51.854Z,100.00
2023-04-24T02:02:25.623Z,100.00
2023-04-24T02:04:58.815Z,100.00
2023-04-24T02:07:31.464Z,100.00
2023-04-24T02:10:05.325Z,99.87
2023-04-24T02:12:37.821Z,100.00
2023-04-24T02:15:11.909Z,100.00
2023-04-24T02:17:45.103Z,100.00
2023-04-24T02:20:18.910Z,98.95
2023-04-24T02:22:51.629Z,100.00
2023-04-24T02:25:26.448Z,98.87
2023-04-24T02:28:01.249Z,98.44
2023-04-24T02:30:33.906Z,99.44
2023-04-24T02:33:07.334Z,98.50
2023-04-24T02:35:39.903Z,100.00
2023-04-24T02:38:12.626Z,100.00
2023-04-24T02:40:45.365Z,100.00
2023-04-24T02:43:17.942Z,100.00
2023-04-24T02:45:51.053Z,100.00
2023-04-24T02:48:24.100Z,100.00
2023-04-24T02:50:58.992Z,99.91
2023-04-24T02:53:32.259Z,100.00
2023-04-24T02:56:31.824Z,100.00
2023-04-24T02:59:05.385Z,100.00
2023-04-24T03:01:38.311Z,100.00
2023-04-24T03:04:11.963Z,100.00
2023-04-24T03:06:45.193Z,99.59
2023-04-24T03:09:17.566Z,99.25
2023-04-24T03:11:50.776Z,100.00
2023-04-24T03:14:23.956Z,100.00
2023-04-24T03:16:57.106Z,99.88
2023-04-24T03:19:29.750Z,99.64
2023-04-24T03:22:10.721Z,99.62
2023-04-24T03:24:44.049Z,99.15
2023-04-24T03:27:17.901Z,98.95
2023-04-24T03:30:00.836Z,98.49
2023-04-24T03:32:40.689Z,97.96
2023-04-24T03:35:14.617Z,98.19
2023-04-24T03:37:45.464Z,99.64
2023-04-24T03:40:48.270Z,100.00
2023-04-24T03:43:36.140Z,99.97
2023-04-24T03:46:10.812Z,99.54
2023-04-24T03:48:50.550Z,99.48
2023-04-24T03:51:24.484Z,99.24
2023-04-24T03:53:59.007Z,99.70
2023-04-24T03:56:34.457Z,99.93
2023-04-24T03:59:08.350Z,99.18
2023-04-24T04:01:44.115Z,99.72
2023-04-24T04:04:22.183Z,99.38
2023-04-24T04:06:54.935Z,99.57
2023-04-24T04:09:28.162Z,97.42
2023-04-24T04:12:01.991Z,98.52
2023-04-24T04:14:35.519Z,95.58
2023-04-24T04:17:10.896Z,93.75
2023-04-24T04:19:46.157Z,94.40
2023-04-24T04:22:19.477Z,93.22
2023-04-24T04:24:55.461Z,92.63
2023-04-24T04:27:28.337Z,90.84
2023-04-24T04:30:09.936Z,90.72
2023-04-24T04:33:03.943Z,91.05
2023-04-24T04:35:37.949Z,89.61
2023-04-24T04:38:12.261Z,92.33
2023-04-24T04:40:54.721Z,94.49
2023-04-24T04:43:28.020Z,94.98
2023-04-24T04:46:02.194Z,93.89
2023-04-24T04:48:45.380Z,92.51
2023-04-24T04:51:18.059Z,91.43
2023-04-24T04:53:50.772Z,92.36
2023-04-24T04:56:24.002Z,94.59
2023-04-24T04:58:55.276Z,95.05
2023-04-24T05:01:30.327Z,94.86
2023-04-24T05:04:03.405Z,91.82
2023-04-24T05:06:36.652Z,91.36
2023-04-24T05:09:10.969Z,94.07
2023-04-24T05:11:54.864Z,89.83
2023-04-24T05:14:29.291Z,91.55
2023-04-24T05:17:02.890Z,86.58
2023-04-24T05:19:37.260Z,84.16
2023-04-24T05:22:11.182Z,80.29
2023-04-24T05:24:51.364Z,78.75
2023-04-24T05:27:50.672Z,78.56
2023-04-24T05:30:23.932Z,81.11
2023-04-24T05:32:59.229Z,80.04
2023-04-24T05:35:33.618Z,76.74
2023-04-24T05:38:06.381Z,76.03
2023-04-24T05:40:38.913Z,75.16
2023-04-24T05:43:11.853Z,75.75
2023-04-24T05:45:44.400Z,73.79
2023-04-24T05:48:17.291Z,75.84
2023-04-24T05:50:49.881Z,72.34
2023-04-24T05:53:23.057Z,70.94
2023-04-24T05:55:57.021Z,72.71
2023-04-24T05:58:30.753Z,71.04
2023-04-24T06:01:03.985Z,74.21
2023-04-24T06:03:37.096Z,73.20
2023-04-24T06:06:10.681Z,69.14
2023-04-24T06:08:44.170Z,70.27
2023-04-24T06:11:17.304Z,66.94
2023-04-24T06:13:50.209Z,67.52
2023-04-24T06:16:50.322Z,70.59
2023-04-24T06:19:34.727Z,72.44
2023-04-24T06:22:08.503Z,66.14
2023-04-24T06:24:44.972Z,65.44
2023-04-24T06:27:17.593Z,66.80
2023-04-24T06:29:55.825Z,64.43
2023-04-24T06:32:29.901Z,64.23
2023-04-24T06:35:05.998Z,67.14
2023-04-24T06:37:50.851Z,64.28
2023-04-24T06:40:22.214Z,62.43
2023-04-24T06:42:55.132Z,62.19
2023-04-24T06:45:27.961Z,62.34
2023-04-24T06:48:00.912Z,60.34
2023-04-24T06:50:33.903Z,60.40
2023-04-24T06:53:06.585Z,58.92
2023-04-24T06:55:42.139Z,57.03
2023-04-24T06:58:16.407Z,55.43
2023-04-24T07:00:49.243Z,57.30
2023-04-24T07:03:22.873Z,57.26
2023-04-24T07:05:57.982Z,54.82
2023-04-24T07:08:31.821Z,54.20
2023-04-24T07:11:07.300Z,51.98
2023-04-24T07:13:43.143Z,51.15
2023-04-24T07:16:16.435Z,51.69
2023-04-24T07:18:48.882Z,50.62
2023-04-24T07:21:24.108Z,48.92
2023-04-24T07:23:56.593Z,49.62
2023-04-24T07:26:30.669Z,49.36
2023-04-24T07:29:03.746Z,48.68
2023-04-24T07:31:36.586Z,48.73
2023-04-24T07:34:10.052Z,47.44
2023-04-24T07:36:43.689Z,47.13
2023-04-24T07:39:16.322Z,48.02
2023-04-24T07:41:49.678Z,47.13
2023-04-24T07:44:20.612Z,47.94
2023-04-24T07:46:53.597Z,46.82
2023-04-24T07:49:26.384Z,47.55
2023-04-24T07:52:01.373Z,48.27
2023-04-24T07:54:34.139Z,48.36
2023-04-24T07:57:08.194Z,47.01
2023-04-24T07:59:41.636Z,47.72
2023-04-24T08:02:14.844Z,48.05
2023-04-24T08:04:47.636Z,48.78
2023-04-24T08:07:22.129Z,46.96
2023-04-24T08:09:55.199Z,46.83
2023-04-24T08:12:28.061Z,49.32
2023-04-24T08:15:01.843Z,48.18
2023-04-24T08:17:36.776Z,46.06
2023-04-24T08:20:14.863Z,47.08
2023-04-24T08:22:48.999Z,49.05
2023-04-24T08:25:21.931Z,47.82
2023-04-24T08:27:54.690Z,49.70
2023-04-24T08:30:29.352Z,47.28
2023-04-24T08:33:02.278Z,47.22
2023-04-24T08:35:43.800Z,44.84
2023-04-24T08:38:16.621Z,45.73
2023-04-24T08:40:51.485Z,44.75
2023-04-24T08:43:27.291Z,43.10
2023-04-24T08:46:00.657Z,44.10
2023-04-24T08:48:34.496Z,44.51
2023-04-24T08:51:09.749Z,43.96
2023-04-24T08:53:43.455Z,44.82
2023-04-24T08:56:18.819Z,41.36
2023-04-24T08:58:52.553Z,41.60
2023-04-24T09:01:26.149Z,43.89
2023-04-24T09:04:01.991Z,43.43
2023-04-24T09:06:35.721Z,42.82
2023-04-24T09:09:09.204Z,42.94
2023-04-24T09:11:42.631Z,44.87
2023-04-24T09:14:15.981Z,41.58
2023-04-24T09:16:49.166Z,39.96
2023-04-24T09:19:20.864Z,43.20
2023-04-24T09:21:55.574Z,41.18
2023-04-24T09:24:28.632Z,39.97
2023-04-24T09:27:04.022Z,34.97
2023-04-24T09:29:37.028Z,42.28
2023-04-24T09:35:19.324Z,42.67
2023-04-24T09:37:52.083Z,41.34
2023-04-24T09:40:28.100Z,39.68
2023-04-24T09:43:03.875Z,40.15
2023-04-24T09:45:42.528Z,41.12
2023-04-24T09:48:15.427Z,41.00
2023-04-24T09:50:54.708Z,40.24
2023-04-24T09:53:30.585Z,41.02
2023-04-24T09:56:09.817Z,40.01
2023-04-24T09:58:42.777Z,39.37
2023-04-24T10:01:15.802Z,40.25
2023-04-24T10:03:48.767Z,39.99
2023-04-24T10:06:21.832Z,38.55
2023-04-24T10:08:54.796Z,39.04
2023-04-24T10:11:28.343Z,37.84
2023-04-24T10:14:01.688Z,38.64
2023-04-24T10:16:32.749Z,38.27
2023-04-24T10:19:06.440Z,38.16
2023-04-24T10:21:43.755Z,38.47
2023-04-24T10:24:17.196Z,38.00
2023-04-24T10:26:50.932Z,39.11
2023-04-24T10:29:26.392Z,37.79
2023-04-24T10:31:59.445Z,38.16
2023-04-24T10:34:32.682Z,36.88
2023-04-24T10:37:07.686Z,37.78
2023-04-24T10:39:41.932Z,37.00
2023-04-24T10:42:20.499Z,36.18
2023-04-24T10:44:53.844Z,37.12
2023-04-24T10:47:26.940Z,36.60
2023-04-24T10:50:04.408Z,37.45
2023-04-24T10:52:52.740Z,37.88
2023-04-24T10:55:45.370Z,38.46
2023-04-24T10:58:19.162Z,38.37
2023-04-24T11:01:01.718Z,38.59
2023-04-24T11:03:35.728Z,38.50
2023-04-24T11:06:10.294Z,37.52
2023-04-24T11:08:45.759Z,37.31
2023-04-24T11:11:22.164Z,38.60
2023-04-24T11:14:13.700Z,37.43
2023-04-24T11:16:54.158Z,37.46
2023-04-24T11:19:31.067Z,38.27
2023-04-24T11:22:06.623Z,37.65
2023-04-24T11:24:53.663Z,38.42
2023-04-24T11:27:32.507Z,37.13
2023-04-24T11:30:07.366Z,36.86
2023-04-24T11:32:43.134Z,36.84
2023-04-24T11:35:19.591Z,38.57
2023-04-24T11:38:13.074Z,37.54
2023-04-24T11:40:47.419Z,36.56
2023-04-24T11:43:21.487Z,37.33
2023-04-24T11:45:55.773Z,38.02
2023-04-24T11:48:28.638Z,36.19
2023-04-24T11:51:04.457Z,36.46
2023-04-24T11:53:39.301Z,36.72
2023-04-24T11:56:13.604Z,36.90
2023-04-24T11:58:47.328Z,38.55
2023-04-24T12:01:19.940Z,38.02
2023-04-24T12:04:02.370Z,37.87
2023-04-24T12:06:36.228Z,39.32
2023-04-24T12:09:17.670Z,38.97
2023-04-24T12:11:59.898Z,39.84
2023-04-24T12:14:33.255Z,38.01
2023-04-24T12:17:07.687Z,36.85
2023-04-24T12:19:40.640Z,38.57
2023-04-24T12:22:14.878Z,39.38
2023-04-24T12:25:05.409Z,39.78
2023-04-24T12:27:37.921Z,40.40
2023-04-24T12:30:16.540Z,38.15
2023-04-24T12:32:50.993Z,36.98
2023-04-24T12:35:27.078Z,38.51
2023-04-24T12:38:07.811Z,37.37
2023-04-24T12:40:40.842Z,37.83
2023-04-24T12:43:20.595Z,37.12
2023-04-24T12:45:56.457Z,37.33
2023-04-24T12:48:29.702Z,38.18
2023-04-24T12:51:03.617Z,38.28
2023-04-24T12:53:36.432Z,38.29
2023-04-24T12:56:09.547Z,36.65
2023-04-24T12:58:42.542Z,37.12
2023-04-24T13:01:15.724Z,37.31
2023-04-24T13:03:48.535Z,38.02
2023-04-24T13:06:19.357Z,38.22
2023-04-24T13:08:52.896Z,38.38
2023-04-24T13:11:25.887Z,38.76
2023-04-24T13:13:59.432Z,38.17
2023-04-24T13:16:32.527Z,37.58
2023-04-24T13:19:05.468Z,39.25
2023-04-24T13:21:38.530Z,36.59
2023-04-24T13:24:11.472Z,36.29
2023-04-24T13:26:42.285Z,36.54
2023-04-24T13:29:15.355Z,37.00
2023-04-24T13:31:49.725Z,38.17
2023-04-24T13:34:22.842Z,37.22
2023-04-24T13:36:56.878Z,38.47
2023-04-24T13:39:30.815Z,38.25
2023-04-24T13:42:05.078Z,38.21
2023-04-24T13:44:38.351Z,37.82
2023-04-24T13:47:11.168Z,38.36
2023-04-24T13:49:46.356Z,38.72
2023-04-24T13:52:19.516Z,38.23
2023-04-24T13:54:52.232Z,38.22
2023-04-24T13:57:25.635Z,38.69
2023-04-24T14:00:02.803Z,38.15
2023-04-24T14:02:40.941Z,37.95
2023-04-24T14:05:22.932Z,38.19
2023-04-24T14:07:58.793Z,40.47
2023-04-24T14:10:32.168Z,42.87
2023-04-24T14:13:05.303Z,47.20
2023-04-24T14:15:41.846Z,49.73
2023-04-24T14:18:14.957Z,52.31
2023-04-24T14:20:49.419Z,51.96
2023-04-24T14:23:22.858Z,51.82
2023-04-24T14:25:57.292Z,52.11
2023-04-24T14:28:31.467Z,54.71
2023-04-24T14:31:04.421Z,55.32
2023-04-24T14:33:35.408Z,55.62
2023-04-24T14:36:08.959Z,57.11
2023-04-24T14:38:41.724Z,56.33
2023-04-24T14:41:15.127Z,57.04
2023-04-24T14:43:48.044Z,58.33
2023-04-24T14:46:19.171Z,58.63
2023-04-24T14:48:52.202Z,59.92
2023-04-24T14:51:25.637Z,59.07
2023-04-24T14:53:58.912Z,60.46
2023-04-24T14:56:29.751Z,60.37
2023-04-24T14:59:05.521Z,62.15
2023-04-24T15:01:38.816Z,60.92
2023-04-24T15:04:11.800Z,62.04
2023-04-24T15:06:46.484Z,60.40
2023-04-24T15:09:19.475Z,61.25
2023-04-24T15:11:52.453Z,60.50
2023-04-24T15:14:25.354Z,60.16
2023-04-24T15:16:58.599Z,60.58
2023-04-24T15:19:31.424Z,62.39
2023-04-24T15:22:03.950Z,61.47
2023-04-24T15:24:36.579Z,61.53
2023-04-24T15:27:11.984Z,61.23
2023-04-24T15:29:44.896Z,60.82
2023-04-24T15:32:17.819Z,61.04
2023-04-24T15:34:56.778Z,61.24
2023-04-24T15:37:37.585Z,59.35
2023-04-24T15:40:14.640Z,59.45
2023-04-24T15:42:47.758Z,59.23
2023-04-24T15:45:20.571Z,59.71
2023-04-24T15:47:54.289Z,60.51
2023-04-24T15:50:28.760Z,61.25
2023-04-24T15:53:04.726Z,60.60
2023-04-24T15:55:39.269Z,61.61
2023-04-24T15:58:12.016Z,62.42
2023-04-24T16:00:47.881Z,62.48
2023-04-24T16:03:21.429Z,61.88
2023-04-24T16:05:54.688Z,62.53
2023-04-24T16:08:27.933Z,61.62
2023-04-24T16:10:59.241Z,61.95
2023-04-24T16:13:32.387Z,64.11
2023-04-24T16:16:03.272Z,63.62
2023-04-24T16:18:35.892Z,65.22
2023-04-24T16:21:10.841Z,66.77
2023-04-24T16:23:43.837Z,66.51
2023-04-24T16:26:14.791Z,67.19
2023-04-24T16:28:47.842Z,68.42
2023-04-24T16:31:18.837Z,68.08
2023-04-24T16:33:51.880Z,69.04
2023-04-24T16:36:24.591Z,67.93
2023-04-24T16:38:58.070Z,69.19
2023-04-24T16:41:30.819Z,68.79
2023-04-24T16:44:03.740Z,68.73
2023-04-24T16:46:36.719Z,68.99
2023-04-24T16:49:12.161Z,69.51
2023-04-24T16:51:44.728Z,71.18
2023-04-24T16:54:17.641Z,72.09
2023-04-24T16:56:50.342Z,72.65
2023-04-24T16:59:23.986Z,73.22
2023-04-24T17:01:56.668Z,75.61
2023-04-24T17:04:29.573Z,76.35
2023-04-24T17:07:02.633Z,76.38
2023-04-24T17:09:37.338Z,77.23
2023-04-24T17:12:11.350Z,75.76
2023-04-24T17:14:44.459Z,75.53
2023-04-24T17:17:18.758Z,73.80
2023-04-24T17:19:53.245Z,73.76
2023-04-24T17:22:26.511Z,74.52
2023-04-24T17:24:59.190Z,75.09
2023-04-24T17:27:31.858Z,75.82
2023-04-24T17:30:06.396Z,75.91
2023-04-24T17:32:39.570Z,76.13
2023-04-24T17:35:13.898Z,75.30
2023-04-24T17:37:47.893Z,75.12
2023-04-24T17:40:21.845Z,75.80
2023-04-24T17:42:54.821Z,76.16
2023-04-24T17:45:36.194Z,76.43
2023-04-24T17:48:09.729Z,76.85
2023-04-24T17:50:45.238Z,77.38
2023-04-24T17:53:19.236Z,78.02
2023-04-24T17:55:54.603Z,77.41
2023-04-24T17:58:31.012Z,78.02
2023-04-24T18:01:04.445Z,79.04
2023-04-24T18:03:39.342Z,79.91
2023-04-24T18:06:12.632Z,81.42
2023-04-24T18:08:46.253Z,82.15
2023-04-24T18:11:22.949Z,82.19
2023-04-24T18:14:00.598Z,82.70
2023-04-24T18:16:34.300Z,83.29
2023-04-24T18:19:09.402Z,84.55
2023-04-24T18:21:44.226Z,84.65
2023-04-24T18:24:18.146Z,83.38
2023-04-24T18:26:51.030Z,83.21
2023-04-24T18:29:25.551Z,82.82
2023-04-24T18:31:58.263Z,82.50
2023-04-24T18:34:31.919Z,81.98
2023-04-24T18:37:14.547Z,82.56
2023-04-24T18:40:08.810Z,82.32
2023-04-24T18:42:49.829Z,81.76
2023-04-24T18:45:24.287Z,82.59
2023-04-24T18:47:59.873Z,82.75
2023-04-24T18:50:34.784Z,82.86
2023-04-24T18:53:10.008Z,82.80
2023-04-24T18:55:43.790Z,82.80
2023-04-24T18:58:17.150Z,84.02
2023-04-24T19:00:55.885Z,83.61
2023-04-24T19:03:31.108Z,84.00
2023-04-24T19:06:04.691Z,84.23
2023-04-24T19:08:43.196Z,84.68
2023-04-24T19:11:17.618Z,87.30
2023-04-24T19:13:50.124Z,85.87
2023-04-24T19:16:26.151Z,88.09
2023-04-24T19:19:00.427Z,89.73
2023-04-24T19:21:33.787Z,90.06
2023-04-24T19:24:06.564Z,89.53
2023-04-24T19:26:39.443Z,89.94
2023-04-24T19:29:14.846Z,92.24
2023-04-24T19:31:47.252Z,92.52
2023-04-24T19:34:27.086Z,93.05
2023-04-24T19:37:01.333Z,93.02
2023-04-24T19:39:33.989Z,92.16
2023-04-24T19:42:08.143Z,92.18
2023-04-24T19:44:41.432Z,93.30
2023-04-24T19:47:14.663Z,93.97
2023-04-24T19:49:47.882Z,94.57
2023-04-24T19:52:21.655Z,93.79
2023-04-24T19:54:52.969Z,93.05
2023-04-24T19:57:25.558Z,94.63
2023-04-24T19:59:58.335Z,93.81
2023-04-24T20:05:04.228Z,93.84
2023-04-24T20:07:38.548Z,94.47
2023-04-24T20:10:14.880Z,94.02
2023-04-24T20:12:47.579Z,93.20
2023-04-24T20:15:20.411Z,93.09
2023-04-24T20:17:53.172Z,94.48
2023-04-24T20:20:25.811Z,95.67
2023-04-24T20:22:59.044Z,96.47
2023-04-24T20:25:31.862Z,96.94
2023-04-24T20:28:05.367Z,97.11
2023-04-24T20:30:38.812Z,97.16
2023-04-24T20:33:09.447Z,97.17
2023-04-24T20:35:42.254Z,99.05
2023-04-24T20:38:15.914Z,98.89
2023-04-24T20:40:57.880Z,99.64
2023-04-24T20:43:31.604Z,99.87
2023-04-24T20:46:06.463Z,99.98
2023-04-24T20:48:39.017Z,99.82
2023-04-24T20:51:11.624Z,99.99
2023-04-24T20:53:44.075Z,99.99
2023-04-24T20:56:17.100Z,99.94
2023-04-24T20:58:50.995Z,100.00
2023-04-24T21:01:25.168Z,100.00
2023-04-24T21:03:57.649Z,100.00
2023-04-24T21:06:30.212Z,100.00
2023-04-24T21:09:03.463Z,100.00
2023-04-24T21:11:36.125Z,100.00
2023-04-24T21:14:08.930Z,100.00
2023-04-24T21:16:41.663Z,100.00
2023-04-24T21:19:14.151Z,100.00
2023-04-24T21:21:47.000Z,100.00
2023-04-24T21:24:19.509Z,100.00
2023-04-24T21:26:53.971Z,100.00
2023-04-24T21:29:27.260Z,100.00
2023-04-24T21:31:59.727Z,100.00
2023-04-24T21:34:32.700Z,100.00
2023-04-24T21:37:05.391Z,100.00
2023-04-24T21:39:37.846Z,100.00
2023-04-24T21:42:12.286Z,100.00
2023-04-24T21:44:47.899Z,100.00
2023-04-24T21:47:20.520Z,100.00
2023-04-24T21:49:53.014Z,100.00
2023-04-24T21:52:25.914Z,100.00
2023-04-24T21:54:58.439Z,100.00
2023-04-24T21:57:31.250Z,100.00
2023-04-24T22:00:04.932Z,100.00
2023-04-24T22:02:57.605Z,100.00
2023-04-24T22:05:31.179Z,100.00
2023-04-24T22:08:03.671Z,100.00
2023-04-24T22:10:36.324Z,100.00
2023-04-24T22:13:08.867Z,100.00
2023-04-24T22:15:41.485Z,100.00
2023-04-24T22:18:18.709Z,100.00
2023-04-24T22:20:52.074Z,100.00
2023-04-24T22:23:25.858Z,100.00
2023-04-24T22:25:58.573Z,100.00
2023-04-24T22:28:31.011Z,100.00
2023-04-24T22:31:04.140Z,100.00
2023-04-24T22:33:36.726Z,100.00
2023-04-24T22:36:10.482Z,100.00
2023-04-24T22:38:42.831Z,100.00
2023-04-24T22:41:15.541Z,100.00
2023-04-24T22:43:48.305Z,100.00
2023-04-24T22:46:21.386Z,100.00
2023-04-24T22:48:53.872Z,100.00
2023-04-24T22:51:27.929Z,100.00
2023-04-24T22:54:00.415Z,100.00
2023-04-24T22:56:33.409Z,100.00
2023-04-24T22:59:06.981Z,100.00
2023-04-24T23:01:39.728Z,100.00
2023-04-24T23:04:13.669Z,100.00
2023-04-24T23:06:46.449Z,100.00
2023-04-24T23:09:19.524Z,100.00
2023-04-24T23:11:52.338Z,100.00
2023-04-24T23:14:25.415Z,100.00
2023-04-24T23:16:58.708Z,100.00
2023-04-24T23:19:31.442Z,100.00
2023-04-24T23:22:05.654Z,100.00
2023-04-24T23:24:38.323Z,100.00
2023-04-24T23:27:10.896Z,100.00
2023-04-24T23:29:43.670Z,100.00
2023-04-24T23:32:16.622Z,100.00
2023-04-24T23:34:49.211Z,100.00
2023-04-24T23:37:23.514Z,100.00
2023-04-24T23:39:56.085Z,100.00
2023-04-24T23:42:28.478Z,100.00
2023-04-24T23:45:00.839Z,100.00
2023-04-24T23:47:33.913Z,100.00
2023-04-24T23:50:09.140Z,100.00
2023-04-24T23:52:42.252Z,100.00
2023-04-24T23:55:15.258Z,100.00
2023-04-24T23:57:47.946Z,100.00
